Arcata Airport
KACV : now visible

Airfield :











YOU CAN JOIN US ON...

 
LOGIN :

Register | Disclaimer

   EN    FR    IT 

 









Legend :    VFR   Marginal VFR   IFR   Intensive IFR   Very Intensive IFR
Visi :
Ceiling :
>= 8 km
>= 3000ft
5 to 8 km
1000 to 3000 ft
1500m to 5 km
500 to 1000 ft
800 to 1500m
200 to 500 ft
< 800m
< 200 ft
Symbols :   Thunderstorms  Fog  Heavy snow  Heavy precipitations  Wind > 20 kt






- Airport Elevation : 221 ft
- IATA code : ACV


KACV - Arcata

CURRENT METAR :
  • 250117Z AUTO 31003KT 4SM R32/5500VP6000FT BR SCT001 14/13 A3003 RMK AO2 T01440133 $

EXPIRED METARs :
  • 242353Z AUTO 30003KT 10SM FEW002 17/13 A3004 RMK AO2 SLP177 T01720133 10183 20144 58001 $
  • 242253Z AUTO 30004KT 6SM BR BKN002 15/13 A3005 RMK AO2 SLP180 T01500133 $
  • 242311Z AUTO 29003KT 10SM SCT002 16/13 A3004 RMK AO2 T01560133 $

TAF KACV
Valid from the 25 at 02:00 until the 26 at 00:00 UTC


250134Z 2502/2524 VRB03KT 4SM BR BKN002
FM250300 VRB03KT 2SM BR OVC002
FM250900 VRB02KT 1/2SM FG OVC002
FM251800 30005KT 6SM BR BKN005
KZSE FIR / North America



MET'MAP, your aeronautical weather chart ! - Copyright ORBIFLY December 2007 - Disclaimer

ORBIFLY MET'MAP TEAM :

Programming & Development : Alexandra Zaïnal
Original concept : Baudouin d'Aumeries
Technical & hardware support : Manuel Goepfert
Assistance : Marc-Olivier Méhu




SOURCES & CREDITS :

   NOAA       Earth
Advisory